sensor_id;sensor_type;location;lat;lon;timestamp;pressure;altitude;pressure_sealevel;temperature;humidity
65784;BME280;52532;53.358;-1.488;2022-09-24T00:01:36;100695.13;;;15.78;47.97
65784;BME280;52532;53.358;-1.488;2022-09-24T00:04:39;100696.25;;;18.19;44.87
65784;BME280;52532;53.358;-1.488;2022-09-24T00:07:42;100692.61;;;16.71;47.04
65784;BME280;52532;53.358;-1.488;2022-09-24T00:10:46;100699.75;;;17.92;44.76
65784;BME280;52532;53.358;-1.488;2022-09-24T00:13:51;100699.08;;;15.59;47.66
65784;BME280;52532;53.358;-1.488;2022-09-24T00:16:54;100697.90;;;13.91;51.27
65784;BME280;52532;53.358;-1.488;2022-09-24T00:19:57;100700.61;;;12.91;54.52
65784;BME280;52532;53.358;-1.488;2022-09-24T00:23:00;100698.42;;;13.49;54.29
65784;BME280;52532;53.358;-1.488;2022-09-24T00:26:03;100693.82;;;16.58;47.33
65784;BME280;52532;53.358;-1.488;2022-09-24T00:30:13;100691.85;;;12.84;53.16
65784;BME280;52532;53.358;-1.488;2022-09-24T00:33:16;100689.66;;;14.57;50.37
65784;BME280;52532;53.358;-1.488;2022-09-24T00:36:20;100687.52;;;13.81;51.41
65784;BME280;52532;53.358;-1.488;2022-09-24T00:39:24;100690.63;;;13.22;52.33
65784;BME280;52532;53.358;-1.488;2022-09-24T00:42:27;100690.63;;;13.87;51.01
65784;BME280;52532;53.358;-1.488;2022-09-24T00:45:30;100696.19;;;14.48;49.95
65784;BME280;52532;53.358;-1.488;2022-09-24T00:48:33;100692.66;;;14.10;51.54
65784;BME280;52532;53.358;-1.488;2022-09-24T00:51:37;100697.43;;;16.02;47.57
65784;BME280;52532;53.358;-1.488;2022-09-24T00:54:41;100696.68;;;16.57;46.60
65784;BME280;52532;53.358;-1.488;2022-09-24T00:57:46;100700.47;;;15.81;47.59
65784;BME280;52532;53.358;-1.488;2022-09-24T01:00:55;100699.50;;;13.93;50.60
65784;BME280;52532;53.358;-1.488;2022-09-24T01:04:00;100702.03;;;13.17;52.70
65784;BME280;52532;53.358;-1.488;2022-09-24T01:07:04;100700.30;;;15.90;47.82
65784;BME280;52532;53.358;-1.488;2022-09-24T01:10:07;100702.36;;;15.20;48.98
65784;BME280;52532;53.358;-1.488;2022-09-24T01:13:19;100705.30;;;13.99;51.25
65784;BME280;52532;53.358;-1.488;2022-09-24T01:16:31;100708.11;;;13.38;51.86
65784;BME280;52532;53.358;-1.488;2022-09-24T01:19:57;100710.59;;;12.85;53.18
65784;BME280;52532;53.358;-1.488;2022-09-24T01:23:15;100711.06;;;13.07;51.91
65784;BME280;52532;53.358;-1.488;2022-09-24T01:26:37;100700.64;;;13.36;51.40
65784;BME280;52532;53.358;-1.488;2022-09-24T01:29:49;100691.20;;;16.98;45.85
65784;BME280;52532;53.358;-1.488;2022-09-24T01:32:56;100690.90;;;13.81;51.07
65784;BME280;52532;53.358;-1.488;2022-09-24T01:36:04;100685.75;;;14.35;50.48
65784;BME280;52532;53.358;-1.488;2022-09-24T01:39:09;100688.54;;;13.54;50.37
65784;BME280;52532;53.358;-1.488;2022-09-24T01:42:16;100691.23;;;17.11;45.40
65784;BME280;52532;53.358;-1.488;2022-09-24T01:45:20;100689.08;;;14.23;49.49
65784;BME280;52532;53.358;-1.488;2022-09-24T01:48:24;100689.96;;;12.61;52.95
65784;BME280;52532;53.358;-1.488;2022-09-24T01:51:32;100684.70;;;13.20;51.57
65784;BME280;52532;53.358;-1.488;2022-09-24T01:54:41;100688.27;;;15.80;46.27
65784;BME280;52532;53.358;-1.488;2022-09-24T01:57:47;100686.24;;;13.68;50.65
65784;BME280;52532;53.358;-1.488;2022-09-24T02:00:56;100684.89;;;13.45;50.60
65784;BME280;52532;53.358;-1.488;2022-09-24T02:04:07;100683.20;;;15.53;48.12
65784;BME280;52532;53.358;-1.488;2022-09-24T02:07:17;100679.78;;;14.49;49.35
65784;BME280;52532;53.358;-1.488;2022-09-24T02:10:24;100682.19;;;13.66;50.48
65784;BME280;52532;53.358;-1.488;2022-09-24T02:13:33;100679.09;;;13.07;51.32
65784;BME280;52532;53.358;-1.488;2022-09-24T02:16:43;100679.27;;;15.19;46.96
65784;BME280;52532;53.358;-1.488;2022-09-24T02:19:49;100678.00;;;14.07;48.45
65784;BME280;52532;53.358;-1.488;2022-09-24T02:22:54;100680.57;;;16.44;45.89
65784;BME280;52532;53.358;-1.488;2022-09-24T02:25:59;100679.30;;;13.98;49.71
65784;BME280;52532;53.358;-1.488;2022-09-24T02:29:03;100680.53;;;14.33;49.29
65784;BME280;52532;53.358;-1.488;2022-09-24T02:32:09;100682.44;;;13.41;49.74
65784;BME280;52532;53.358;-1.488;2022-09-24T02:35:15;100683.92;;;12.68;51.28
65784;BME280;52532;53.358;-1.488;2022-09-24T02:38:18;100685.69;;;16.19;46.36
65784;BME280;52532;53.358;-1.488;2022-09-24T02:41:22;100684.78;;;14.41;50.09
65784;BME280;52532;53.358;-1.488;2022-09-24T02:44:26;100687.73;;;12.84;52.38
65784;BME280;52532;53.358;-1.488;2022-09-24T02:47:29;100686.07;;;13.05;51.41
65784;BME280;52532;53.358;-1.488;2022-09-24T02:50:32;100688.97;;;12.09;52.30
65784;BME280;52532;53.358;-1.488;2022-09-24T02:53:34;100690.54;;;13.69;50.69
65784;BME280;52532;53.358;-1.488;2022-09-24T02:56:38;100688.69;;;14.47;48.68
65784;BME280;52532;53.358;-1.488;2022-09-24T02:59:41;100692.80;;;13.39;50.77
65784;BME280;52532;53.358;-1.488;2022-09-24T03:02:44;100689.77;;;13.67;49.86
65784;BME280;52532;53.358;-1.488;2022-09-24T03:05:47;100688.16;;;13.54;49.52
65784;BME280;52532;53.358;-1.488;2022-09-24T03:08:50;100685.15;;;14.53;47.63
65784;BME280;52532;53.358;-1.488;2022-09-24T03:11:54;100692.80;;;16.71;45.32
65784;BME280;52532;53.358;-1.488;2022-09-24T03:15:02;100694.04;;;14.78;47.98
65784;BME280;52532;53.358;-1.488;2022-09-24T03:18:05;100695.00;;;11.45;53.42
65784;BME280;52532;53.358;-1.488;2022-09-24T03:21:11;100695.90;;;11.71;52.64
65784;BME280;52532;53.358;-1.488;2022-09-24T03:24:14;100698.08;;;13.18;51.62
65784;BME280;52532;53.358;-1.488;2022-09-24T03:27:17;100698.52;;;13.26;50.69
65784;BME280;52532;53.358;-1.488;2022-09-24T03:30:19;100695.77;;;15.90;46.49
65784;BME280;52532;53.358;-1.488;2022-09-24T03:34:27;100699.41;;;14.17;50.83
65784;BME280;52532;53.358;-1.488;2022-09-24T03:37:30;100699.58;;;16.54;46.37
65784;BME280;52532;53.358;-1.488;2022-09-24T03:40:36;100704.26;;;15.64;46.61
65784;BME280;52532;53.358;-1.488;2022-09-24T03:43:38;100704.46;;;11.85;55.68
65784;BME280;52532;53.358;-1.488;2022-09-24T03:46:41;100706.95;;;11.52;55.60
65784;BME280;52532;53.358;-1.488;2022-09-24T03:49:45;100708.65;;;13.82;51.32
65784;BME280;52532;53.358;-1.488;2022-09-24T03:52:47;100704.74;;;14.62;48.29
65784;BME280;52532;53.358;-1.488;2022-09-24T03:55:54;100710.77;;;15.42;47.52
65784;BME280;52532;53.358;-1.488;2022-09-24T03:58:57;100714.10;;;15.55;47.78
65784;BME280;52532;53.358;-1.488;2022-09-24T04:02:00;100715.81;;;15.35;49.21
65784;BME280;52532;53.358;-1.488;2022-09-24T04:05:03;100724.36;;;13.90;52.27
65784;BME280;52532;53.358;-1.488;2022-09-24T04:08:06;100723.49;;;13.23;53.01
65784;BME280;52532;53.358;-1.488;2022-09-24T04:11:09;100726.60;;;13.87;51.40
65784;BME280;52532;53.358;-1.488;2022-09-24T04:14:12;100722.64;;;12.50;53.99
65784;BME280;52532;53.358;-1.488;2022-09-24T04:17:15;100722.41;;;11.82;54.49
65784;BME280;52532;53.358;-1.488;2022-09-24T04:20:19;100722.01;;;12.08;56.09
65784;BME280;52532;53.358;-1.488;2022-09-24T04:23:23;100718.62;;;14.84;49.09
65784;BME280;52532;53.358;-1.488;2022-09-24T04:26:26;100722.16;;;13.22;52.74
65784;BME280;52532;53.358;-1.488;2022-09-24T04:29:29;100723.83;;;13.31;51.03
65784;BME280;52532;53.358;-1.488;2022-09-24T04:32:32;100720.35;;;16.32;46.65
65784;BME280;52532;53.358;-1.488;2022-09-24T04:35:35;100724.82;;;13.55;50.86
65784;BME280;52532;53.358;-1.488;2022-09-24T04:38:38;100723.62;;;14.65;48.50
65784;BME280;52532;53.358;-1.488;2022-09-24T04:41:41;100726.45;;;11.73;55.24
65784;BME280;52532;53.358;-1.488;2022-09-24T04:44:44;100730.44;;;13.22;51.74
65784;BME280;52532;53.358;-1.488;2022-09-24T04:47:49;100728.59;;;14.24;51.09
65784;BME280;52532;53.358;-1.488;2022-09-24T04:50:53;100727.60;;;13.62;50.46
65784;BME280;52532;53.358;-1.488;2022-09-24T04:53:56;100726.93;;;13.93;50.20
65784;BME280;52532;53.358;-1.488;2022-09-24T04:56:59;100728.84;;;16.17;46.59
65784;BME280;52532;53.358;-1.488;2022-09-24T05:00:05;100728.19;;;14.35;49.21
65784;BME280;52532;53.358;-1.488;2022-09-24T05:03:08;100733.04;;;15.09;47.37
65784;BME280;52532;53.358;-1.488;2022-09-24T05:06:11;100738.89;;;13.51;51.53
65784;BME280;52532;53.358;-1.488;2022-09-24T05:09:14;100737.68;;;12.62;52.22
65784;BME280;52532;53.358;-1.488;2022-09-24T05:12:17;100740.84;;;13.26;52.15
65784;BME280;52532;53.358;-1.488;2022-09-24T05:15:22;100735.82;;;14.62;49.46
65784;BME280;52532;53.358;-1.488;2022-09-24T05:18:25;100735.56;;;14.50;49.74
65784;BME280;52532;53.358;-1.488;2022-09-24T05:21:29;100738.82;;;16.74;45.27
65784;BME280;52532;53.358;-1.488;2022-09-24T05:24:32;100743.60;;;13.68;51.28
65784;BME280;52532;53.358;-1.488;2022-09-24T05:27:34;100744.61;;;14.07;50.39
65784;BME280;52532;53.358;-1.488;2022-09-24T05:30:37;100747.80;;;14.49;49.78
65784;BME280;52532;53.358;-1.488;2022-09-24T05:33:40;100753.16;;;15.12;47.94
65784;BME280;52532;53.358;-1.488;2022-09-24T05:36:43;100753.32;;;14.72;49.18
65784;BME280;52532;53.358;-1.488;2022-09-24T05:39:46;100750.69;;;14.44;49.75
65784;BME280;52532;53.358;-1.488;2022-09-24T05:42:49;100755.46;;;15.20;47.83
65784;BME280;52532;53.358;-1.488;2022-09-24T05:45:52;100754.33;;;15.40;47.24
65784;BME280;52532;53.358;-1.488;2022-09-24T05:48:55;100758.97;;;15.49;47.42
65784;BME280;52532;53.358;-1.488;2022-09-24T05:51:58;100764.81;;;13.62;50.25
65784;BME280;52532;53.358;-1.488;2022-09-24T05:55:01;100772.53;;;13.10;51.66
65784;BME280;52532;53.358;-1.488;2022-09-24T05:58:05;100768.17;;;15.63;47.36
65784;BME280;52532;53.358;-1.488;2022-09-24T06:01:08;100771.68;;;17.31;44.39
65784;BME280;52532;53.358;-1.488;2022-09-24T06:04:11;100775.73;;;18.12;42.44
65784;BME280;52532;53.358;-1.488;2022-09-24T06:07:15;100771.09;;;16.79;43.69
65784;BME280;52532;53.358;-1.488;2022-09-24T06:10:17;100771.72;;;15.66;45.50
65784;BME280;52532;53.358;-1.488;2022-09-24T06:13:20;100772.63;;;17.18;43.12
65784;BME280;52532;53.358;-1.488;2022-09-24T06:16:23;100777.68;;;17.06;43.80
65784;BME280;52532;53.358;-1.488;2022-09-24T06:22:26;100787.42;;;16.66;44.82
65784;BME280;52532;53.358;-1.488;2022-09-24T06:25:30;100791.11;;;16.69;42.93
65784;BME280;52532;53.358;-1.488;2022-09-24T06:28:32;100792.97;;;16.92;44.05
65784;BME280;52532;53.358;-1.488;2022-09-24T06:31:35;100791.95;;;16.78;43.84
65784;BME280;52532;53.358;-1.488;2022-09-24T06:34:38;100795.12;;;16.37;41.61
65784;BME280;52532;53.358;-1.488;2022-09-24T06:37:42;100796.15;;;16.93;41.93
65784;BME280;52532;53.358;-1.488;2022-09-24T06:40:46;100795.18;;;17.34;40.30
65784;BME280;52532;53.358;-1.488;2022-09-24T06:43:52;100795.46;;;17.35;41.02
65784;BME280;52532;53.358;-1.488;2022-09-24T06:46:55;100801.84;;;18.03;40.15
65784;BME280;52532;53.358;-1.488;2022-09-24T06:49:59;100808.15;;;16.86;41.32
65784;BME280;52532;53.358;-1.488;2022-09-24T06:53:04;100803.17;;;16.68;41.81
65784;BME280;52532;53.358;-1.488;2022-09-24T06:56:07;100803.84;;;16.52;41.88
65784;BME280;52532;53.358;-1.488;2022-09-24T06:59:10;100811.85;;;16.35;41.94
65784;BME280;52532;53.358;-1.488;2022-09-24T07:02:13;100816.26;;;17.23;41.02
65784;BME280;52532;53.358;-1.488;2022-09-24T07:05:16;100814.92;;;16.73;41.76
65784;BME280;52532;53.358;-1.488;2022-09-24T07:08:19;100818.22;;;15.50;43.62
65784;BME280;52532;53.358;-1.488;2022-09-24T07:11:22;100825.38;;;14.91;44.86
65784;BME280;52532;53.358;-1.488;2022-09-24T07:14:25;100826.33;;;15.86;45.84
65784;BME280;52532;53.358;-1.488;2022-09-24T07:17:28;100829.24;;;14.80;46.46
65784;BME280;52532;53.358;-1.488;2022-09-24T07:20:31;100826.37;;;13.69;48.65
65784;BME280;52532;53.358;-1.488;2022-09-24T07:23:35;100837.16;;;13.69;50.18
65784;BME280;52532;53.358;-1.488;2022-09-24T07:26:38;100838.14;;;14.26;49.11
65784;BME280;52532;53.358;-1.488;2022-09-24T07:29:41;100839.64;;;15.97;46.49
65784;BME280;52532;53.358;-1.488;2022-09-24T07:32:44;100843.78;;;15.24;45.78
65784;BME280;52532;53.358;-1.488;2022-09-24T07:35:47;100842.02;;;15.39;46.55
65784;BME280;52532;53.358;-1.488;2022-09-24T07:38:54;100843.84;;;16.33;44.58
65784;BME280;52532;53.358;-1.488;2022-09-24T07:41:58;100844.78;;;15.90;44.11
65784;BME280;52532;53.358;-1.488;2022-09-24T07:45:03;100848.25;;;15.40;44.83
65784;BME280;52532;53.358;-1.488;2022-09-24T07:48:08;100851.34;;;14.70;46.61
65784;BME280;52532;53.358;-1.488;2022-09-24T07:51:11;100852.33;;;13.35;49.38
65784;BME280;52532;53.358;-1.488;2022-09-24T07:54:14;100855.13;;;16.44;45.10
65784;BME280;52532;53.358;-1.488;2022-09-24T07:57:18;100857.30;;;15.79;46.71
65784;BME280;52532;53.358;-1.488;2022-09-24T08:00:22;100859.04;;;15.28;48.72
65784;BME280;52532;53.358;-1.488;2022-09-24T08:03:26;100855.91;;;12.49;53.38
65784;BME280;52532;53.358;-1.488;2022-09-24T08:06:29;100858.70;;;13.08;51.79
65784;BME280;52532;53.358;-1.488;2022-09-24T08:09:34;100861.64;;;13.76;51.29
65784;BME280;52532;53.358;-1.488;2022-09-24T08:12:37;100869.33;;;13.11;53.63
65784;BME280;52532;53.358;-1.488;2022-09-24T08:15:40;100864.70;;;11.80;56.89
65784;BME280;52532;53.358;-1.488;2022-09-24T08:18:43;100872.56;;;13.51;54.17
65784;BME280;52532;53.358;-1.488;2022-09-24T08:21:46;100875.12;;;13.68;54.60
65784;BME280;52532;53.358;-1.488;2022-09-24T08:24:50;100875.81;;;12.75;57.58
65784;BME280;52532;53.358;-1.488;2022-09-24T08:27:53;100883.17;;;13.31;56.65
65784;BME280;52532;53.358;-1.488;2022-09-24T08:30:58;100877.09;;;14.01;54.58
65784;BME280;52532;53.358;-1.488;2022-09-24T08:34:01;100880.00;;;13.86;54.57
65784;BME280;52532;53.358;-1.488;2022-09-24T08:37:04;100880.86;;;14.30;53.79
65784;BME280;52532;53.358;-1.488;2022-09-24T08:40:13;100882.19;;;14.24;53.91
65784;BME280;52532;53.358;-1.488;2022-09-24T08:43:31;100893.85;;;14.82;52.44
65784;BME280;52532;53.358;-1.488;2022-09-24T08:46:41;100895.81;;;14.98;51.04
65784;BME280;52532;53.358;-1.488;2022-09-24T08:50:36;100894.61;;;14.44;53.30
65784;BME280;52532;53.358;-1.488;2022-09-24T08:53:47;100901.62;;;14.81;51.91
65784;BME280;52532;53.358;-1.488;2022-09-24T08:56:54;100905.11;;;15.36;51.82
65784;BME280;52532;53.358;-1.488;2022-09-24T08:59:58;100907.33;;;13.84;57.66
65784;BME280;52532;53.358;-1.488;2022-09-24T09:03:07;100908.50;;;12.80;60.75
65784;BME280;52532;53.358;-1.488;2022-09-24T09:06:36;100918.40;;;12.50;62.58
65784;BME280;52532;53.358;-1.488;2022-09-24T09:09:46;100915.28;;;12.90;60.09
65784;BME280;52532;53.358;-1.488;2022-09-24T09:12:54;100916.03;;;13.61;59.09
65784;BME280;52532;53.358;-1.488;2022-09-24T09:16:02;100915.42;;;13.04;59.29
65784;BME280;52532;53.358;-1.488;2022-09-24T09:19:11;100911.74;;;14.16;57.25
65784;BME280;52532;53.358;-1.488;2022-09-24T09:22:16;100912.75;;;14.37;56.31
65784;BME280;52532;53.358;-1.488;2022-09-24T09:25:26;100918.77;;;13.77;58.23
65784;BME280;52532;53.358;-1.488;2022-09-24T09:28:32;100919.51;;;15.23;56.23
65784;BME280;52532;53.358;-1.488;2022-09-24T09:31:47;100920.09;;;14.45;57.59
65784;BME280;52532;53.358;-1.488;2022-09-24T09:35:02;100922.34;;;13.55;58.57
65784;BME280;52532;53.358;-1.488;2022-09-24T09:38:15;100918.64;;;14.13;58.53
65784;BME280;52532;53.358;-1.488;2022-09-24T09:41:26;100917.56;;;13.92;59.50
65784;BME280;52532;53.358;-1.488;2022-09-24T09:44:38;100934.06;;;14.83;57.72
65784;BME280;52532;53.358;-1.488;2022-09-24T09:50:42;100931.21;;;13.31;62.63
65784;BME280;52532;53.358;-1.488;2022-09-24T09:53:54;100934.02;;;14.32;60.07
65784;BME280;52532;53.358;-1.488;2022-09-24T09:57:01;100934.38;;;13.90;62.47
65784;BME280;52532;53.358;-1.488;2022-09-24T10:00:05;100935.76;;;14.23;60.65
65784;BME280;52532;53.358;-1.488;2022-09-24T10:03:21;100935.31;;;13.73;63.18
65784;BME280;52532;53.358;-1.488;2022-09-24T10:06:28;100934.68;;;14.12;61.63
65784;BME280;52532;53.358;-1.488;2022-09-24T10:09:31;100942.40;;;15.06;60.28
65784;BME280;52532;53.358;-1.488;2022-09-24T10:12:34;100943.40;;;13.81;63.06
65784;BME280;52532;53.358;-1.488;2022-09-24T10:15:47;100949.55;;;13.81;62.49
65784;BME280;52532;53.358;-1.488;2022-09-24T10:18:50;100943.19;;;14.58;61.33
65784;BME280;52532;53.358;-1.488;2022-09-24T10:21:54;100945.55;;;15.33;58.97
65784;BME280;52532;53.358;-1.488;2022-09-24T10:24:59;100947.36;;;15.67;59.24
65784;BME280;52532;53.358;-1.488;2022-09-24T10:28:06;100949.21;;;14.92;59.87
65784;BME280;52532;53.358;-1.488;2022-09-24T10:33:22;100950.44;;;14.98;59.57
65784;BME280;52532;53.358;-1.488;2022-09-24T10:36:26;100948.95;;;16.30;55.82
65784;BME280;52532;53.358;-1.488;2022-09-24T10:39:30;100951.08;;;13.74;58.54
65784;BME280;52532;53.358;-1.488;2022-09-24T10:42:33;100950.27;;;14.59;58.74
65784;BME280;52532;53.358;-1.488;2022-09-24T10:45:48;100964.04;;;15.62;56.02
65784;BME280;52532;53.358;-1.488;2022-09-24T10:49:00;100960.60;;;15.71;56.54
65784;BME280;52532;53.358;-1.488;2022-09-24T10:52:18;100962.44;;;13.66;60.25
65784;BME280;52532;53.358;-1.488;2022-09-24T10:55:36;100965.49;;;15.35;56.46
65784;BME280;52532;53.358;-1.488;2022-09-24T10:59:57;100961.70;;;14.46;58.94
65784;BME280;52532;53.358;-1.488;2022-09-24T11:03:34;100958.51;;;14.89;58.58
65784;BME280;52532;53.358;-1.488;2022-09-24T11:07:07;100958.98;;;16.19;54.81
65784;BME280;52532;53.358;-1.488;2022-09-24T11:10:25;100959.12;;;14.13;57.91
65784;BME280;52532;53.358;-1.488;2022-09-24T11:13:39;100964.29;;;15.30;55.41
65784;BME280;52532;53.358;-1.488;2022-09-24T11:17:02;100963.81;;;14.83;57.06
65784;BME280;52532;53.358;-1.488;2022-09-24T11:20:20;100964.92;;;14.50;56.79
65784;BME280;52532;53.358;-1.488;2022-09-24T11:23:39;100964.50;;;14.71;58.32
65784;BME280;52532;53.358;-1.488;2022-09-24T11:26:55;100962.98;;;14.68;59.97
65784;BME280;52532;53.358;-1.488;2022-09-24T11:30:09;100970.97;;;15.61;57.43
65784;BME280;52532;53.358;-1.488;2022-09-24T11:36:21;100967.54;;;14.21;58.80
65784;BME280;52532;53.358;-1.488;2022-09-24T11:39:40;100965.62;;;14.77;58.26
65784;BME280;52532;53.358;-1.488;2022-09-24T11:42:58;100971.89;;;16.44;53.09
65784;BME280;52532;53.358;-1.488;2022-09-24T11:46:15;100969.76;;;16.18;51.79
65784;BME280;52532;53.358;-1.488;2022-09-24T11:49:46;100975.17;;;15.16;54.77
65784;BME280;52532;53.358;-1.488;2022-09-24T11:52:58;100969.73;;;15.12;55.26
65784;BME280;52532;53.358;-1.488;2022-09-24T11:56:09;100968.19;;;14.65;56.68
65784;BME280;52532;53.358;-1.488;2022-09-24T11:59:30;100975.34;;;14.66;58.22
65784;BME280;52532;53.358;-1.488;2022-09-24T12:02:39;100971.81;;;15.45;53.86
65784;BME280;52532;53.358;-1.488;2022-09-24T12:05:45;100966.75;;;16.78;49.03
65784;BME280;52532;53.358;-1.488;2022-09-24T12:08:55;100972.57;;;15.99;51.22
65784;BME280;52532;53.358;-1.488;2022-09-24T12:12:05;100975.81;;;15.28;52.01
65784;BME280;52532;53.358;-1.488;2022-09-24T12:15:13;100980.31;;;15.46;51.18
65784;BME280;52532;53.358;-1.488;2022-09-24T12:18:24;100979.56;;;15.90;50.11
65784;BME280;52532;53.358;-1.488;2022-09-24T12:21:32;100983.18;;;15.76;49.69
65784;BME280;52532;53.358;-1.488;2022-09-24T12:27:34;100988.65;;;14.56;51.24
65784;BME280;52532;53.358;-1.488;2022-09-24T12:30:41;100980.63;;;16.63;50.48
65784;BME280;52532;53.358;-1.488;2022-09-24T12:36:06;100979.63;;;15.91;49.59
65784;BME280;52532;53.358;-1.488;2022-09-24T12:39:23;100986.24;;;15.52;51.85
65784;BME280;52532;53.358;-1.488;2022-09-24T12:42:33;100994.16;;;14.38;54.11
65784;BME280;52532;53.358;-1.488;2022-09-24T12:45:39;100995.75;;;14.67;52.28
65784;BME280;52532;53.358;-1.488;2022-09-24T12:48:42;101002.25;;;15.45;52.17
65784;BME280;52532;53.358;-1.488;2022-09-24T12:51:46;100998.35;;;14.94;53.93
65784;BME280;52532;53.358;-1.488;2022-09-24T12:54:54;100997.36;;;14.32;56.68
65784;BME280;52532;53.358;-1.488;2022-09-24T12:58:02;100995.00;;;14.08;55.22
65784;BME280;52532;53.358;-1.488;2022-09-24T13:01:11;100991.63;;;15.31;52.27
65784;BME280;52532;53.358;-1.488;2022-09-24T13:04:26;101000.01;;;16.73;49.26
65784;BME280;52532;53.358;-1.488;2022-09-24T13:07:33;100995.05;;;15.23;51.83
65784;BME280;52532;53.358;-1.488;2022-09-24T13:10:36;101012.32;;;15.66;50.79
65784;BME280;52532;53.358;-1.488;2022-09-24T13:13:39;101012.23;;;15.38;51.80
65784;BME280;52532;53.358;-1.488;2022-09-24T13:16:47;101014.44;;;14.21;54.43
65784;BME280;52532;53.358;-1.488;2022-09-24T13:19:57;101006.93;;;14.87;52.39
65784;BME280;52532;53.358;-1.488;2022-09-24T13:23:12;101003.82;;;16.08;50.09
65784;BME280;52532;53.358;-1.488;2022-09-24T13:26:32;101013.08;;;15.51;51.79
65784;BME280;52532;53.358;-1.488;2022-09-24T13:29:37;101012.73;;;16.00;49.93
65784;BME280;52532;53.358;-1.488;2022-09-24T13:32:46;101021.46;;;14.65;53.88
65784;BME280;52532;53.358;-1.488;2022-09-24T13:36:02;101021.70;;;14.24;53.08
65784;BME280;52532;53.358;-1.488;2022-09-24T13:39:12;101022.92;;;14.36;51.41
65784;BME280;52532;53.358;-1.488;2022-09-24T13:42:19;101028.08;;;14.01;51.93
65784;BME280;52532;53.358;-1.488;2022-09-24T13:45:23;101022.11;;;14.55;51.58
65784;BME280;52532;53.358;-1.488;2022-09-24T13:48:32;101017.48;;;14.13;51.71
65784;BME280;52532;53.358;-1.488;2022-09-24T13:51:38;101016.66;;;15.57;49.93
65784;BME280;52532;53.358;-1.488;2022-09-24T13:54:48;101018.70;;;14.47;52.46
65784;BME280;52532;53.358;-1.488;2022-09-24T13:57:53;101012.02;;;14.00;55.18
65784;BME280;52532;53.358;-1.488;2022-09-24T14:00:58;101010.24;;;14.40;54.17
65784;BME280;52532;53.358;-1.488;2022-09-24T14:04:05;101022.45;;;15.45;50.38
65784;BME280;52532;53.358;-1.488;2022-09-24T14:10:12;101024.15;;;15.67;49.47
65784;BME280;52532;53.358;-1.488;2022-09-24T14:13:18;101047.03;;;14.62;49.63
65784;BME280;52532;53.358;-1.488;2022-09-24T14:16:23;101035.79;;;13.69;50.95
65784;BME280;52532;53.358;-1.488;2022-09-24T14:19:26;101035.93;;;14.51;50.21
65784;BME280;52532;53.358;-1.488;2022-09-24T14:22:33;101043.31;;;14.83;50.06
65784;BME280;52532;53.358;-1.488;2022-09-24T14:25:37;101039.78;;;14.89;50.29
65784;BME280;52532;53.358;-1.488;2022-09-24T14:28:41;101038.10;;;14.39;52.02
65784;BME280;52532;53.358;-1.488;2022-09-24T14:31:46;101039.91;;;14.18;50.54
65784;BME280;52532;53.358;-1.488;2022-09-24T14:34:52;101037.45;;;14.68;49.81
65784;BME280;52532;53.358;-1.488;2022-09-24T14:38:00;101035.29;;;14.05;50.26
65784;BME280;52532;53.358;-1.488;2022-09-24T14:41:14;101039.15;;;14.29;51.04
65784;BME280;52532;53.358;-1.488;2022-09-24T14:44:21;101042.44;;;14.99;47.52
65784;BME280;52532;53.358;-1.488;2022-09-24T14:47:26;101054.71;;;14.09;49.65
65784;BME280;52532;53.358;-1.488;2022-09-24T14:50:36;101048.95;;;12.79;53.20
65784;BME280;52532;53.358;-1.488;2022-09-24T14:53:40;101049.43;;;15.17;47.05
65784;BME280;52532;53.358;-1.488;2022-09-24T14:56:43;101046.68;;;14.99;46.59
65784;BME280;52532;53.358;-1.488;2022-09-24T14:59:46;101039.78;;;13.74;49.75
65784;BME280;52532;53.358;-1.488;2022-09-24T15:02:54;101042.21;;;15.45;45.25
65784;BME280;52532;53.358;-1.488;2022-09-24T15:06:03;101045.42;;;15.91;44.33
65784;BME280;52532;53.358;-1.488;2022-09-24T15:09:19;101042.72;;;15.01;45.88
65784;BME280;52532;53.358;-1.488;2022-09-24T15:12:27;101044.48;;;14.81;46.21
65784;BME280;52532;53.358;-1.488;2022-09-24T15:15:32;101052.35;;;14.71;47.57
65784;BME280;52532;53.358;-1.488;2022-09-24T15:18:35;101040.76;;;14.24;49.62
65784;BME280;52532;53.358;-1.488;2022-09-24T15:21:38;101043.62;;;14.35;51.81
65784;BME280;52532;53.358;-1.488;2022-09-24T15:24:41;101051.10;;;14.66;51.26
65784;BME280;52532;53.358;-1.488;2022-09-24T15:27:44;101050.63;;;15.06;48.93
65784;BME280;52532;53.358;-1.488;2022-09-24T15:30:47;101048.90;;;15.73;48.76
65784;BME280;52532;53.358;-1.488;2022-09-24T15:33:50;101054.37;;;15.93;47.02
65784;BME280;52532;53.358;-1.488;2022-09-24T15:36:54;101051.82;;;15.01;48.38
65784;BME280;52532;53.358;-1.488;2022-09-24T15:40:06;101052.32;;;15.32;48.44
65784;BME280;52532;53.358;-1.488;2022-09-24T15:43:18;101051.72;;;15.10;49.56
65784;BME280;52532;53.358;-1.488;2022-09-24T15:46:21;101049.97;;;14.44;51.15
65784;BME280;52532;53.358;-1.488;2022-09-24T15:49:24;101057.47;;;14.52;48.72
65784;BME280;52532;53.358;-1.488;2022-09-24T15:52:27;101053.39;;;15.39;47.51
65784;BME280;52532;53.358;-1.488;2022-09-24T15:55:35;101058.59;;;15.93;46.63
65784;BME280;52532;53.358;-1.488;2022-09-24T15:58:38;101061.52;;;14.93;48.21
65784;BME280;52532;53.358;-1.488;2022-09-24T16:01:41;101061.39;;;14.46;49.76
65784;BME280;52532;53.358;-1.488;2022-09-24T16:04:44;101059.82;;;15.17;48.45
65784;BME280;52532;53.358;-1.488;2022-09-24T16:07:47;101065.21;;;15.59;47.48
65784;BME280;52532;53.358;-1.488;2022-09-24T16:10:51;101076.54;;;15.01;47.78
65784;BME280;52532;53.358;-1.488;2022-09-24T16:13:54;101082.97;;;15.25;48.87
65784;BME280;52532;53.358;-1.488;2022-09-24T16:16:56;101073.72;;;16.35;47.25
65784;BME280;52532;53.358;-1.488;2022-09-24T16:20:00;101085.11;;;15.86;47.74
65784;BME280;52532;53.358;-1.488;2022-09-24T16:23:03;101081.73;;;14.76;49.99
65784;BME280;52532;53.358;-1.488;2022-09-24T16:26:06;101082.69;;;16.24;49.98